Addyston, OH

8:18 PM EDT on August 21, 2014 (GMT -0400)
Miami Township | Change Station
CLOSE
Current Station
Personal Weather Station
Location: Cincinnati, OH
Elevation: 817 ft
Nearby Weather Stations

Elev 817 ft 39.14 °N, 84.70 °W | Updated 6 seconds ago

Mostly Cloudy
Mostly Cloudy
80.2 °F
Feels Like 86 °F
N
0.9
Wind Variable Wind from South
Gusts 2.0 mph

Today
High -- | Low -- °F
--% Chance of Precip.
Yesterday
High -- | Low -- °F
Precip. -- in
6:57 AM 8:25 PM
Waning Crescent, 11% visible
Pressure 29.98 in
Visibility 8.0 miles
Clouds Few 2400 ft
Mostly Cloudy 25000 ft
Heat Index 86 °F
Dew Point 76 °F
Humidity 87%
Rainfall 0.11 in
Snow Depth Not available.
UV 0 out of 12
Pollen 9.10 out of 12
Ozone Good
PM2.5 Moderate
Flu Activity Not available.
METAR KCVG 212352Z 17004KT 8SM FEW024 BKN250 27/23 A3001 RMK AO2 SLP151 T02670233 10289 20244 56009

More Conditions Fewer Conditions

Pressure 29.98 in
Visibility 8.0 miles
Clouds Few 2400 ft
Mostly Cloudy 25000 ft
Heat Index 86 °F
Dew Point 76 °F
Humidity 87%
Rainfall 0.11 in
Snow Depth Not available.
UV 0 out of 12
Pollen 9.10 out of 12
Ozone Good
PM2.5 Moderate
Flu Activity Not available.
METAR KCVG 212352Z 17004KT 8SM FEW024 BKN250 27/23 A3001 RMK AO2 SLP151 T02670233 10289 20244 56009

More Conditions Fewer Conditions

10-Day Weather Forecast

Almanac

Astronomy

Aug. 21, 2014 Rise Set
Actual Time 6:57 AM EDT 8:25 PM EDT
Civil Twilight 6:29 AM EDT 8:53 PM EDT
Nautical Twilight 5:55 AM EDT 9:27 PM EDT
Astronomical Twilight 5:19 AM EDT 10:03 PM EDT
Moon 3:27 AM EDT (8/21) 5:53 PM EDT (8/21)
Length of Visible Light 14h 24m
Length of Day
13h 28m
Tomorrow will be 2m 21s shorter.
Waning Crescent, 11% of the Moon is Illuminated
Today
Waning Crescent
Aug 25
New
Sep 2
First Quarter
Sep 8
Full
Sep 15
Last Quarter

Today's Extremes

State Highs State Lows

Community

WunderPhotos

Upload Photos

1,746,065 photos uploaded!

Nearby

Air Quality

  Air Quality AQ Index Pollutant
Yesterday Good
PM10
Yesterday Good
OZONE
Current Moderate
PM2.5
Current Good
OZONE
Thursday Moderate
PM2.5
Thursday Good
OZONE
Friday Moderate
PM2.5
Friday Good
OZONE

Snow Depth

Station Depth Elevation
No new snow has been reported.

Earthquake Activity

City Distance Mag. Time & Date
No recent earthquake activity has been reported nearby.
Minimum magnitude displayed is 2.5.

Coastal Water Temperatures

Place Temperature
No Stations Reporting

Nearby Weather Stations